Thunder radar more information blitzortung!


Radar de pluja more information rain snow radar


Visita la nostra xarxa de llocs de meteo:

Template documentation
and downloads

And another site



Extreme low temperature From: 13-12-2017 09:00 Until: 09:59 warning for: Extreme low temperature Level: Yellow info button

Pagina Historial Weather Underground text

Diari Resum Marc 27, 2016 Unitats:  Mètric    Imperial   Tant
« Previous Dia
SegĂźent Dia »
Diari Setmana Mensual Anual Personalitzada
  Maxima: Minima: Media:
Temperatura: 19.5 °C 9.0 °C 14.9 °C
Punt de rosada: 10.4 °C 4.8 °C 7 °C
Humitat: 78 % 43 % 60 %
Wind Speed: 23.7 km/h 0.0 km/h 6.6 km/h
RĂ fegues de vent: 23.7 km/h - -
Vent:- - South
Pression baro: 1018.8 hPa 1014.8 hPa -
Precipitacions: 0.0 mm    
Historical Graphs
 
 
Dades de taula per Marc 27, 2016
Temps Temperatura Punt de rosada Pression baro Vent Wind Speed RĂ fegues de vent Humitat Rainfall Rate (Hourly)
00:00 9.0 °C 5.4 °C 1015.8 hPa Calm   1.6 km/h 78 % 0.0 mm
00:10 9.0 °C 5.4 °C 1015.8 hPa WSW 1.6 km/h   78 % 0.0 mm
00:20 9.2 °C 5.4 °C 1015.8 hPa WSW 3.2 km/h 3.2 km/h 77 % 0.0 mm
00:30 9.2 °C 5.6 °C 1014.8 hPa Calm   3.2 km/h 78 % 0.0 mm
00:50 9.6 °C 5.8 °C 1015.8 hPa NNE 3.2 km/h 4.8 km/h 77 % 0.0 mm
01:00 9.9 °C 6.1 °C 1015.8 hPa Calm   3.2 km/h 77 % 0.0 mm
01:10 10.3 °C 6.3 °C 1015.8 hPa WSW 3.2 km/h 3.2 km/h 76 % 0.0 mm
01:20 10.6 °C 6.3 °C 1015.8 hPa WSW 1.6 km/h 4.8 km/h 75 % 0.0 mm
01:30 11.1 °C 6.6 °C 1015.8 hPa WSW 3.2 km/h 4.8 km/h 74 % 0.0 mm
01:40 11.3 °C 6.8 °C 1014.8 hPa WSW 1.6 km/h 3.2 km/h 74 % 0.0 mm
01:50 11.7 °C 7.0 °C 1014.8 hPa WNW 1.6 km/h 3.2 km/h 73 % 0.0 mm
03:00 11.0 °C 6.6 °C 1014.8 hPa SE 3.2 km/h 6.4 km/h 74 % 0.0 mm
03:10 10.9 °C 6.4 °C 1015.8 hPa ESE 1.6 km/h 3.2 km/h 74 % 0.0 mm
03:20 11.3 °C 6.8 °C 1015.8 hPa ENE 3.2 km/h 3.2 km/h 74 % 0.0 mm
03:30 12.0 °C 7.5 °C 1015.8 hPa East 4.8 km/h 4.8 km/h 74 % 0.0 mm
03:40 12.8 °C 8.1 °C 1016.8 hPa East 4.8 km/h 4.8 km/h 73 % 0.0 mm
03:50 12.8 °C 7.9 °C 1016.8 hPa East 8.0 km/h 9.7 km/h 72 % 0.0 mm
04:00 12.4 °C 7.3 °C 1016.8 hPa ESE 8.0 km/h 8.0 km/h 71 % 0.0 mm
04:10 13.0 °C 7.7 °C 1017.8 hPa ESE 9.7 km/h 9.7 km/h 70 % 0.0 mm
04:20 13.6 °C 8.0 °C 1017.8 hPa East 4.8 km/h 6.4 km/h 69 % 0.0 mm
04:30 14.0 °C 8.4 °C 1017.8 hPa ENE 3.2 km/h 6.4 km/h 69 % 0.0 mm
04:40 14.4 °C 8.6 °C 1017.8 hPa ENE 4.8 km/h 6.4 km/h 68 % 0.0 mm
04:50 14.9 °C 8.8 °C 1017.8 hPa ENE 4.8 km/h 6.4 km/h 67 % 0.0 mm
05:10 15.4 °C 9.1 °C 1017.8 hPa ENE 3.2 km/h 6.4 km/h 66 % 0.0 mm
05:20 15.5 °C 9.2 °C 1017.8 hPa NE 1.6 km/h 4.8 km/h 66 % 0.0 mm
05:30 15.6 °C 9.3 °C 1017.8 hPa NE 4.8 km/h 6.4 km/h 66 % 0.0 mm
05:40 15.7 °C 9.1 °C 1017.8 hPa NE 3.2 km/h 6.4 km/h 65 % 0.0 mm
05:50 15.9 °C 9.3 °C 1017.8 hPa NE 3.2 km/h 6.4 km/h 65 % 0.0 mm
06:00 16.3 °C 9.7 °C 1017.8 hPa NNE 8.0 km/h 8.0 km/h 65 % 0.0 mm
06:10 16.6 °C 10.0 °C 1017.8 hPa NNE 1.6 km/h 6.4 km/h 65 % 0.0 mm
12:20 16.8 °C 9.7 °C 1017.8 hPa NNW 5.6 km/h 5.6 km/h 63 % 0.0 mm
12:25 16.9 °C 9.8 °C 1017.8 hPa ENE 5.6 km/h 5.6 km/h 63 % 0.0 mm
12:30 17.1 °C 10.0 °C 1017.8 hPa ENE 6.1 km/h 6.1 km/h 63 % 0.0 mm
12:35 17.2 °C 10.1 °C 1017.8 hPa ENE 3.7 km/h 3.7 km/h 63 % 0.0 mm
12:40 17.2 °C 9.8 °C 1017.8 hPa WNW 5.6 km/h 5.6 km/h 62 % 0.0 mm
12:45 17.7 °C 10.3 °C 1017.8 hPa East 5.6 km/h 5.6 km/h 62 % 0.0 mm
12:50 18.0 °C 10.4 °C 1017.8 hPa NE 3.2 km/h   61 % 0.0 mm
12:55 18.1 °C 10.4 °C 1017.8 hPa ENE 6.1 km/h 6.1 km/h 61 % 0.0 mm
13:00 17.7 °C 9.8 °C 1017.8 hPa NNE 5.6 km/h 5.6 km/h 60 % 0.0 mm
13:05 17.7 °C 10.1 °C 1017.8 hPa ENE 5.6 km/h 5.6 km/h 61 % 0.0 mm
13:10 17.4 °C 9.8 °C 1017.8 hPa SSW 11.1 km/h 11.1 km/h 61 % 0.0 mm
13:15 17.6 °C 10.0 °C 1017.8 hPa SSW 5.0 km/h 5.0 km/h 61 % 0.0 mm
13:20 17.6 °C 9.7 °C 1017.8 hPa SSW 3.7 km/h 3.7 km/h 60 % 0.0 mm
13:25 17.6 °C 9.5 °C 1017.8 hPa WSW 9.3 km/h 9.3 km/h 59 % 0.0 mm
13:30 17.4 °C 7.7 °C 1017.8 hPa WSW 5.6 km/h 5.6 km/h 53 % 0.0 mm
13:35 17.4 °C 7.7 °C 1017.8 hPa WNW 4.7 km/h 4.7 km/h 53 % 0.0 mm
13:40 17.2 °C 6.9 °C 1016.8 hPa WNW 9.3 km/h 9.3 km/h 51 % 0.0 mm
13:45 17.2 °C 6.9 °C 1016.8 hPa WSW 5.6 km/h 5.6 km/h 51 % 0.0 mm
13:50 17.4 °C 6.9 °C 1016.8 hPa West 2.6 km/h 2.6 km/h 50 % 0.0 mm
13:55 17.5 °C 6.7 °C 1017.8 hPa SW 9.3 km/h 9.3 km/h 49 % 0.0 mm
14:00 17.6 °C 6.2 °C 1017.8 hPa NNE 5.6 km/h 5.6 km/h 47 % 0.0 mm
14:05 17.6 °C 6.2 °C 1017.8 hPa South 5.6 km/h 5.6 km/h 47 % 0.0 mm
14:10 17.7 °C 5.9 °C 1017.8 hPa West 5.6 km/h 5.6 km/h 46 % 0.0 mm
14:15 17.9 °C 5.8 °C 1017.8 hPa NNE 9.3 km/h 9.3 km/h 45 % 0.0 mm
14:20 18.2 °C 6.1 °C 1017.8 hPa SSW 5.6 km/h 5.6 km/h 45 % 0.0 mm
14:25 18.3 °C 6.2 °C 1017.8 hPa West 9.3 km/h 9.3 km/h 45 % 0.0 mm
14:30 18.4 °C 5.9 °C 1017.8 hPa WSW 6.1 km/h 6.1 km/h 44 % 0.0 mm
14:35 18.5 °C 5.7 °C 1017.8 hPa West 7.4 km/h 7.4 km/h 43 % 0.0 mm
14:40 18.5 °C 6.0 °C 1017.8 hPa North 4.2 km/h 4.2 km/h 44 % 0.0 mm
14:45 18.1 °C 5.3 °C 1017.8 hPa ESE 7.4 km/h 7.4 km/h 43 % 0.0 mm
14:50 17.5 °C 6.7 °C 1017.8 hPa ESE 9.3 km/h 9.3 km/h 49 % 0.0 mm
14:55 17.0 °C 7.1 °C 1017.8 hPa East 11.1 km/h 11.1 km/h 52 % 0.0 mm
15:00 16.7 °C 7.3 °C 1017.8 hPa SE 9.3 km/h 9.3 km/h 54 % 0.0 mm
15:05 17.0 °C 7.9 °C 1017.8 hPa East 10.3 km/h 10.3 km/h 55 % 0.0 mm
15:10 16.7 °C 8.1 °C 1017.8 hPa NE 14.8 km/h 14.8 km/h 57 % 0.0 mm
15:15 16.9 °C 8.3 °C 1017.8 hPa East 16.7 km/h 16.7 km/h 57 % 0.0 mm
15:20 17.2 °C 8.3 °C 1017.8 hPa SSE 11.1 km/h 11.1 km/h 56 % 0.0 mm
15:25 17.1 °C 8.2 °C 1016.8 hPa ESE 9.3 km/h 9.3 km/h 56 % 0.0 mm
15:30 17.0 °C 8.2 °C 1016.8 hPa WSW 11.1 km/h 11.1 km/h 56 % 0.0 mm
15:35 17.7 °C 8.8 °C 1016.8 hPa SSW 2.6 km/h   56 % 0.0 mm
15:40 18.5 °C 8.7 °C 1015.8 hPa SW 13.0 km/h 13.0 km/h 53 % 0.0 mm
15:45 19.5 °C 9.1 °C 1015.8 hPa WSW 7.4 km/h 7.4 km/h 51 % 0.0 mm
15:50 18.6 °C 8.3 °C 1015.8 hPa WSW 13.0 km/h 13.0 km/h 51 % 0.0 mm
15:55 18.4 °C 8.1 °C 1015.8 hPa WSW 14.8 km/h 14.8 km/h 51 % 0.0 mm
16:00 18.9 °C 8.8 °C 1015.8 hPa WSW 11.1 km/h 11.1 km/h 52 % 0.0 mm
16:05 18.8 °C 8.7 °C 1015.8 hPa WSW 16.7 km/h 16.7 km/h 52 % 0.0 mm
16:10 18.7 °C 8.3 °C 1015.8 hPa SW 19.5 km/h 19.5 km/h 51 % 0.0 mm
16:15 18.5 °C 8.2 °C 1015.8 hPa SSW 20.1 km/h 20.1 km/h 51 % 0.0 mm
16:20 18.4 °C 8.1 °C 1015.8 hPa SW 13.0 km/h 13.0 km/h 51 % 0.0 mm
16:25 18.6 °C 8.3 °C 1015.8 hPa WSW 17.5 km/h 17.5 km/h 51 % 0.0 mm
16:30 18.6 °C 8.3 °C 1015.8 hPa South 13.0 km/h 13.0 km/h 51 % 0.0 mm
16:35 19.0 °C 8.3 °C 1015.8 hPa WSW 11.1 km/h 11.1 km/h 50 % 0.0 mm
16:40 18.7 °C 8.3 °C 1015.8 hPa SSW 14.8 km/h 14.8 km/h 51 % 0.0 mm
16:45 18.6 °C 8.3 °C 1015.8 hPa SSW 13.0 km/h 13.0 km/h 51 % 0.0 mm
16:50 18.4 °C 8.1 °C 1015.8 hPa WNW 14.8 km/h 14.8 km/h 51 % 0.0 mm
16:55 18.3 °C 8.0 °C 1015.8 hPa SW 16.7 km/h 16.7 km/h 51 % 0.0 mm
17:00 18.6 °C 8.3 °C 1015.8 hPa SSW 11.1 km/h 11.1 km/h 51 % 0.0 mm
17:05 18.5 °C 7.9 °C 1015.8 hPa SW 13.0 km/h 13.0 km/h 50 % 0.0 mm
17:10 18.1 °C 7.5 °C 1015.8 hPa SSW 14.8 km/h 14.8 km/h 50 % 0.0 mm
17:15 18.3 °C 7.7 °C 1015.8 hPa SW 9.3 km/h 9.3 km/h 50 % 0.0 mm
17:20 18.4 °C 7.8 °C 1015.8 hPa SW 9.3 km/h 9.3 km/h 50 % 0.0 mm
17:25 18.3 °C 7.7 °C 1015.8 hPa SW 14.8 km/h 14.8 km/h 50 % 0.0 mm
17:30 18.1 °C 7.5 °C 1015.8 hPa SW 13.0 km/h 13.0 km/h 50 % 0.0 mm
17:35 18.2 °C 7.6 °C 1015.8 hPa SSW 11.1 km/h 11.1 km/h 50 % 0.0 mm
17:40 18.0 °C 7.7 °C 1015.8 hPa South 9.3 km/h 9.3 km/h 51 % 0.0 mm
17:45 18.3 °C 8.0 °C 1015.8 hPa WSW 23.7 km/h 23.7 km/h 51 % 0.0 mm
17:50 18.0 °C 7.7 °C 1015.8 hPa SW 14.8 km/h 14.8 km/h 51 % 0.0 mm
18:00 17.6 °C 7.3 °C 1015.8 hPa WSW 11.1 km/h 11.1 km/h 51 % 0.0 mm
18:05 17.9 °C 7.6 °C 1015.8 hPa South 9.3 km/h 9.3 km/h 51 % 0.0 mm
18:10 18.0 °C 7.7 °C 1015.8 hPa WSW 13.0 km/h 13.0 km/h 51 % 0.0 mm
18:15 17.5 °C 7.2 °C 1015.8 hPa WNW 11.1 km/h 11.1 km/h 51 % 0.0 mm
18:20 17.2 °C 6.9 °C 1016.8 hPa SW 14.8 km/h 14.8 km/h 51 % 0.0 mm
18:25 17.1 °C 6.9 °C 1016.8 hPa SSW 9.3 km/h 9.3 km/h 51 % 0.0 mm
18:30 16.9 °C 7.0 °C 1016.8 hPa SSW 11.1 km/h 11.1 km/h 52 % 0.0 mm
18:35 16.7 °C 7.1 °C 1016.8 hPa WSW 9.3 km/h 9.3 km/h 53 % 0.0 mm
18:40 17.0 °C 7.1 °C 1016.8 hPa WSW 7.4 km/h 7.4 km/h 52 % 0.0 mm
18:45 16.9 °C 7.3 °C 1016.8 hPa SSW 11.1 km/h 11.1 km/h 53 % 0.0 mm
18:50 16.7 °C 7.1 °C 1016.8 hPa SSW 16.1 km/h 16.1 km/h 53 % 0.0 mm
18:55 16.1 °C 6.5 °C 1017.8 hPa SW 14.8 km/h 14.8 km/h 53 % 0.0 mm
19:00 16.1 °C 6.8 °C 1017.8 hPa WSW 5.8 km/h 5.8 km/h 54 % 0.0 mm
19:05 16.0 °C 6.7 °C 1017.8 hPa WSW 11.1 km/h 11.1 km/h 54 % 0.0 mm
19:10 15.6 °C 6.3 °C 1017.8 hPa WSW 5.6 km/h   54 % 0.0 mm
19:15 15.4 °C 6.4 °C 1017.8 hPa SW 9.0 km/h 9.0 km/h 55 % 0.0 mm
19:20 15.1 °C 6.4 °C 1017.8 hPa SW 7.4 km/h 7.4 km/h 56 % 0.0 mm
19:25 15.0 °C 6.3 °C 1017.8 hPa WSW 9.3 km/h 9.3 km/h 56 % 0.0 mm
19:30 14.8 °C 6.1 °C 1017.8 hPa SW 9.3 km/h 9.3 km/h 56 % 0.0 mm
19:35 14.7 °C 6.3 °C 1017.8 hPa SW 5.6 km/h 6.1 km/h 57 % 0.0 mm
19:40 14.5 °C 6.1 °C 1017.8 hPa WSW 4.2 km/h 4.2 km/h 57 % 0.0 mm
19:45 14.3 °C 6.2 °C 1017.8 hPa WSW 7.4 km/h 7.4 km/h 58 % 0.0 mm
19:55 14.2 °C 6.1 °C 1017.8 hPa SSW 5.6 km/h 5.6 km/h 58 % 0.0 mm
20:00 14.2 °C 6.1 °C 1017.8 hPa East 7.4 km/h 7.4 km/h 58 % 0.0 mm
20:05 14.2 °C 6.1 °C 1017.8 hPa NE 3.7 km/h 3.7 km/h 58 % 0.0 mm
20:10 13.3 °C 5.7 °C 1017.8 hPa NNE 5.6 km/h 5.6 km/h 60 % 0.0 mm
20:15 13.1 °C 5.7 °C 1017.8 hPa NNE 5.3 km/h 5.3 km/h 61 % 0.0 mm
20:20 13.0 °C 5.7 °C 1017.8 hPa East 5.8 km/h 5.8 km/h 61 % 0.0 mm
20:25 12.7 °C 5.4 °C 1016.8 hPa East 4.2 km/h 4.2 km/h 61 % 0.0 mm
20:30 12.6 °C 5.3 °C 1016.8 hPa ENE 3.7 km/h 3.7 km/h 61 % 0.0 mm
20:35 12.5 °C 5.4 °C 1016.8 hPa NE 2.3 km/h   62 % 0.0 mm
20:40 12.4 °C 5.3 °C 1017.8 hPa NE 3.2 km/h 3.2 km/h 62 % 0.0 mm
20:45 12.4 °C 5.3 °C 1017.8 hPa ENE 3.7 km/h 3.7 km/h 62 % 0.0 mm
20:50 12.3 °C 5.2 °C 1017.8 hPa ENE 5.8 km/h 5.8 km/h 62 % 0.0 mm
20:55 12.2 °C 5.3 °C 1017.8 hPa ENE 3.7 km/h 3.7 km/h 63 % 0.0 mm
21:00 12.0 °C 5.2 °C 1017.8 hPa NNE 1.9 km/h   63 % 0.0 mm
21:05 12.0 °C 5.4 °C 1017.8 hPa Calm     64 % 0.0 mm
21:10 11.8 °C 5.2 °C 1017.8 hPa Calm     64 % 0.0 mm
21:15 11.7 °C 5.1 °C 1017.8 hPa WNW 1.9 km/h   64 % 0.0 mm
21:20 11.6 °C 5.2 °C 1017.8 hPa Calm     65 % 0.0 mm
21:25 11.6 °C 5.2 °C 1017.8 hPa ENE 3.7 km/h 3.7 km/h 65 % 0.0 mm
21:35 11.4 °C 5.3 °C 1017.8 hPa NE 3.7 km/h 3.7 km/h 66 % 0.0 mm
21:40 11.3 °C 4.9 °C 1017.8 hPa WSW 3.7 km/h 3.7 km/h 65 % 0.0 mm
21:45 11.2 °C 4.8 °C 1017.8 hPa Calm     65 % 0.0 mm
21:50 11.1 °C 5.0 °C 1017.8 hPa ENE 3.7 km/h 3.7 km/h 66 % 0.0 mm
22:00 11.0 °C 5.1 °C 1017.8 hPa NE 1.9 km/h   67 % 0.0 mm
22:05 11.0 °C 5.3 °C 1017.8 hPa ENE 2.3 km/h 2.3 km/h 68 % 0.0 mm
22:10 10.9 °C 5.2 °C 1017.8 hPa Calm     68 % 0.0 mm
22:15 10.9 °C 5.2 °C 1017.8 hPa Calm     68 % 0.0 mm
22:16 10.9 °C 5.2 °C 1017.8 hPa Calm     68 % 0.0 mm
22:21 10.9 °C 5.4 °C 1017.8 hPa Calm     69 % 0.0 mm
22:26 10.9 °C 5.4 °C 1017.8 hPa Calm     69 % 0.0 mm
22:31 10.9 °C 5.2 °C 1017.8 hPa SW 1.9 km/h 1.9 km/h 68 % 0.0 mm
22:36 11.0 °C 5.3 °C 1018.8 hPa WNW 1.9 km/h 1.9 km/h 68 % 0.0 mm
22:41 11.1 °C 5.4 °C 1018.8 hPa Calm     68 % 0.0 mm
22:46 11.1 °C 5.6 °C 1018.8 hPa Calm     69 % 0.0 mm
22:51 11.1 °C 5.6 °C 1018.8 hPa Calm     69 % 0.0 mm
22:56 11.0 °C 5.3 °C 1018.8 hPa SW 3.9 km/h 3.9 km/h 68 % 0.0 mm
23:01 11.0 °C 5.3 °C 1018.8 hPa WSW 3.7 km/h 3.7 km/h 68 % 0.0 mm
23:06 11.0 °C 5.5 °C 1017.8 hPa WSW 3.7 km/h 3.7 km/h 69 % 0.0 mm
23:11 11.0 °C 5.5 °C 1017.8 hPa SW 3.7 km/h 3.7 km/h 69 % 0.0 mm
23:16 10.9 °C 5.4 °C 1017.8 hPa SW 3.7 km/h 3.7 km/h 69 % 0.0 mm
23:21 10.8 °C 5.6 °C 1017.8 hPa SW 2.3 km/h   70 % 0.0 mm
23:26 10.8 °C 5.7 °C 1017.8 hPa Calm     71 % 0.0 mm
23:31 10.8 °C 5.7 °C 1017.8 hPa Calm     71 % 0.0 mm
23:36 10.8 °C 5.6 °C 1018.8 hPa SW 1.9 km/h 1.9 km/h 70 % 0.0 mm
23:41 10.8 °C 5.7 °C 1018.8 hPa WSW 1.9 km/h   71 % 0.0 mm
23:46 10.8 °C 5.6 °C 1018.8 hPa SW 1.9 km/h 1.9 km/h 70 % 0.0 mm
23:51 10.8 °C 5.6 °C 1018.8 hPa WSW 3.7 km/h 3.7 km/h 70 % 0.0 mm
23:56 10.8 °C 5.6 °C 1018.8 hPa WSW 3.7 km/h 3.7 km/h 70 % 0.0 mm
Meteo Sesrovires
Elogis d' Weather Underground - 3.5 mb

Guio original per  Jim McMurry - jmcmurry@mwt.net Adaptat per a la plantilla per  Wim van der Kuil - Leuven-Template.eu

Trobareu la nostra informacio del temps tambe a:

Weather Underground

AWEKAS